• images/banner/banner1.jpg
  • images/banner/banner2.jpg

Team Member Login

Aviation Weather

[source: ADDS]
METAR
EGVN 111250Z 35015KT 9999 FEW035 BKN160 01/M02 Q0986 BLU NOSIG =
TAF
TAF EGVN 111046Z 1112/1212 36015G25KT 9999 FEW040 BECMG 1113/1116 33010KT PROB30 1203/1207 5000 BR MIFG =